sensor_id;sensor_type;location;lat;lon;timestamp;pressure;altitude;pressure_sealevel;temperature;humidity
49947;BME280;35839;48.662;13.300;2023-04-27T05:04:22;97546.97;;;6.21;100.00
49947;BME280;35839;48.662;13.300;2023-04-27T05:06:47;97554.53;;;6.24;100.00
49947;BME280;35839;48.662;13.300;2023-04-27T05:09:13;97553.91;;;6.54;100.00
49947;BME280;35839;48.662;13.300;2023-04-27T05:11:38;97549.19;;;7.03;100.00
49947;BME280;35839;48.662;13.300;2023-04-27T05:14:03;97556.56;;;6.87;100.00
49947;BME280;35839;48.662;13.300;2023-04-27T05:16:29;97555.56;;;7.10;100.00
49947;BME280;35839;48.662;13.300;2023-04-27T05:18:54;97569.34;;;6.90;100.00
49947;BME280;35839;48.662;13.300;2023-04-27T05:21:19;97564.19;;;6.67;100.00
49947;BME280;35839;48.662;13.300;2023-04-27T05:23:46;97566.22;;;7.07;100.00
49947;BME280;35839;48.662;13.300;2023-04-27T05:26:15;97563.25;;;7.12;100.00
49947;BME280;35839;48.662;13.300;2023-04-27T05:28:41;97568.78;;;7.18;100.00
49947;BME280;35839;48.662;13.300;2023-04-27T05:31:07;97566.84;;;7.53;100.00
49947;BME280;35839;48.662;13.300;2023-04-27T05:33:32;97571.06;;;7.65;100.00
49947;BME280;35839;48.662;13.300;2023-04-27T05:35:58;97569.59;;;7.51;100.00
49947;BME280;35839;48.662;13.300;2023-04-27T05:38:24;97565.53;;;7.58;100.00
49947;BME280;35839;48.662;13.300;2023-04-27T05:40:57;97574.44;;;7.77;100.00
49947;BME280;35839;48.662;13.300;2023-04-27T05:43:24;97572.22;;;8.24;100.00
49947;BME280;35839;48.662;13.300;2023-04-27T05:45:49;97571.06;;;8.17;100.00
49947;BME280;35839;48.662;13.300;2023-04-27T05:48:15;97569.81;;;8.11;100.00
49947;BME280;35839;48.662;13.300;2023-04-27T05:50:40;97573.91;;;8.35;100.00
49947;BME280;35839;48.662;13.300;2023-04-27T05:53:05;97568.50;;;8.57;100.00
49947;BME280;35839;48.662;13.300;2023-04-27T05:55:31;97571.00;;;8.59;100.00
49947;BME280;35839;48.662;13.300;2023-04-27T05:57:57;97570.00;;;8.50;100.00
49947;BME280;35839;48.662;13.300;2023-04-27T06:00:22;97569.34;;;8.58;96.93
49947;BME280;35839;48.662;13.300;2023-04-27T06:02:47;97565.88;;;8.98;94.77
49947;BME280;35839;48.662;13.300;2023-04-27T06:05:13;97573.41;;;8.81;91.93
49947;BME280;35839;48.662;13.300;2023-04-27T06:07:38;97574.09;;;8.83;88.91
49947;BME280;35839;48.662;13.300;2023-04-27T06:10:04;97566.38;;;8.72;89.92
49947;BME280;35839;48.662;13.300;2023-04-27T06:12:30;97562.00;;;9.02;89.70
49947;BME280;35839;48.662;13.300;2023-04-27T06:14:55;97566.44;;;9.21;86.41
49947;BME280;35839;48.662;13.300;2023-04-27T06:17:21;97564.38;;;9.24;88.85
49947;BME280;35839;48.662;13.300;2023-04-27T06:19:46;97569.03;;;9.11;88.75
49947;BME280;35839;48.662;13.300;2023-04-27T06:22:11;97573.13;;;9.04;88.60
49947;BME280;35839;48.662;13.300;2023-04-27T06:24:37;97571.66;;;9.31;85.41
49947;BME280;35839;48.662;13.300;2023-04-27T06:27:02;97577.31;;;9.36;87.60
49947;BME280;35839;48.662;13.300;2023-04-27T06:29:27;97576.34;;;9.56;84.85
49947;BME280;35839;48.662;13.300;2023-04-27T06:31:53;97576.31;;;9.17;86.70
49947;BME280;35839;48.662;13.300;2023-04-27T06:34:18;97578.69;;;9.30;86.19
49947;BME280;35839;48.662;13.300;2023-04-27T06:36:43;97590.94;;;9.49;83.67
49947;BME280;35839;48.662;13.300;2023-04-27T06:39:09;97584.88;;;9.58;85.19
49947;BME280;35839;48.662;13.300;2023-04-27T06:41:34;97584.59;;;9.61;85.61
49947;BME280;35839;48.662;13.300;2023-04-27T06:43:59;97587.75;;;9.55;84.36
49947;BME280;35839;48.662;13.300;2023-04-27T06:46:25;97585.38;;;9.91;85.19
49947;BME280;35839;48.662;13.300;2023-04-27T06:48:50;97585.38;;;9.81;84.46
49947;BME280;35839;48.662;13.300;2023-04-27T06:51:16;97594.09;;;10.29;82.54
49947;BME280;35839;48.662;13.300;2023-04-27T06:53:41;97593.06;;;10.02;79.43
49947;BME280;35839;48.662;13.300;2023-04-27T06:56:10;97596.31;;;10.33;79.96
49947;BME280;35839;48.662;13.300;2023-04-27T06:58:36;97595.53;;;10.51;77.97
49947;BME280;35839;48.662;13.300;2023-04-27T07:01:02;97594.22;;;10.27;79.71
49947;BME280;35839;48.662;13.300;2023-04-27T07:03:28;97603.94;;;10.54;79.23
49947;BME280;35839;48.662;13.300;2023-04-27T07:05:53;97595.03;;;10.75;76.55
49947;BME280;35839;48.662;13.300;2023-04-27T07:08:20;97596.41;;;10.69;77.40
49947;BME280;35839;48.662;13.300;2023-04-27T07:10:45;97592.41;;;10.28;77.75
49947;BME280;35839;48.662;13.300;2023-04-27T07:13:11;97588.94;;;10.74;77.79
49947;BME280;35839;48.662;13.300;2023-04-27T07:15:36;97591.38;;;10.86;76.24
49947;BME280;35839;48.662;13.300;2023-04-27T07:18:01;97589.59;;;11.04;76.26
49947;BME280;35839;48.662;13.300;2023-04-27T07:20:27;97583.41;;;11.23;75.63
49947;BME280;35839;48.662;13.300;2023-04-27T07:22:52;97587.47;;;11.35;79.16
49947;BME280;35839;48.662;13.300;2023-04-27T07:25:18;97583.41;;;11.23;78.62
49947;BME280;35839;48.662;13.300;2023-04-27T07:27:43;97585.94;;;11.69;76.30
49947;BME280;35839;48.662;13.300;2023-04-27T07:30:09;97584.81;;;11.71;75.64
49947;BME280;35839;48.662;13.300;2023-04-27T07:32:39;97590.59;;;11.57;77.56
49947;BME280;35839;48.662;13.300;2023-04-27T07:35:05;97586.06;;;12.03;73.84
49947;BME280;35839;48.662;13.300;2023-04-27T07:37:31;97579.50;;;12.07;74.49
49947;BME280;35839;48.662;13.300;2023-04-27T07:39:56;97585.78;;;12.14;76.77
49947;BME280;35839;48.662;13.300;2023-04-27T07:42:23;97593.97;;;12.37;73.76
49947;BME280;35839;48.662;13.300;2023-04-27T07:44:49;97589.81;;;12.61;72.56
49947;BME280;35839;48.662;13.300;2023-04-27T07:47:15;97586.22;;;12.70;71.12
49947;BME280;35839;48.662;13.300;2023-04-27T07:49:42;97588.44;;;12.83;74.32
49947;BME280;35839;48.662;13.300;2023-04-27T07:52:10;97590.09;;;13.00;75.34
49947;BME280;35839;48.662;13.300;2023-04-27T07:54:35;97589.03;;;13.19;75.01
49947;BME280;35839;48.662;13.300;2023-04-27T07:57:06;97591.16;;;13.16;73.88
49947;BME280;35839;48.662;13.300;2023-04-27T07:59:32;97585.28;;;13.30;71.75
49947;BME280;35839;48.662;13.300;2023-04-27T08:01:57;97584.75;;;13.18;71.80
49947;BME280;35839;48.662;13.300;2023-04-27T08:04:22;97587.88;;;13.22;69.50
49947;BME280;35839;48.662;13.300;2023-04-27T08:06:48;97588.19;;;13.19;69.92
49947;BME280;35839;48.662;13.300;2023-04-27T08:09:13;97584.09;;;13.24;71.64
49947;BME280;35839;48.662;13.300;2023-04-27T08:11:38;97579.66;;;13.25;68.62
49947;BME280;35839;48.662;13.300;2023-04-27T08:14:04;97587.94;;;13.55;67.17
49947;BME280;35839;48.662;13.300;2023-04-27T08:16:29;97589.25;;;13.59;63.72
49947;BME280;35839;48.662;13.300;2023-04-27T08:18:55;97589.25;;;13.59;64.92
49947;BME280;35839;48.662;13.300;2023-04-27T08:21:20;97590.75;;;13.69;67.50
49947;BME280;35839;48.662;13.300;2023-04-27T08:23:45;97585.31;;;13.79;64.79
49947;BME280;35839;48.662;13.300;2023-04-27T08:26:14;97585.63;;;13.93;67.51
49947;BME280;35839;48.662;13.300;2023-04-27T08:28:40;97588.22;;;14.25;64.98
49947;BME280;35839;48.662;13.300;2023-04-27T08:31:05;97589.69;;;14.28;65.81
49947;BME280;35839;48.662;13.300;2023-04-27T08:33:31;97590.66;;;14.35;64.66
49947;BME280;35839;48.662;13.300;2023-04-27T08:35:56;97589.78;;;14.43;64.00
49947;BME280;35839;48.662;13.300;2023-04-27T08:38:21;97591.59;;;14.50;60.93
49947;BME280;35839;48.662;13.300;2023-04-27T08:40:46;97582.81;;;14.74;60.46
49947;BME280;35839;48.662;13.300;2023-04-27T08:43:12;97594.81;;;14.13;53.96
49947;BME280;35839;48.662;13.300;2023-04-27T08:45:38;97589.75;;;14.67;54.13
49947;BME280;35839;48.662;13.300;2023-04-27T08:48:03;97594.88;;;14.61;54.63
49947;BME280;35839;48.662;13.300;2023-04-27T08:50:28;97587.88;;;14.28;55.68
49947;BME280;35839;48.662;13.300;2023-04-27T08:52:55;97595.19;;;14.66;55.77
49947;BME280;35839;48.662;13.300;2023-04-27T08:55:21;97593.94;;;14.93;54.21
49947;BME280;35839;48.662;13.300;2023-04-27T08:57:53;97595.38;;;15.04;56.86
49947;BME280;35839;48.662;13.300;2023-04-27T09:00:19;97594.13;;;14.27;48.16
49947;BME280;35839;48.662;13.300;2023-04-27T09:02:45;97593.84;;;15.09;49.30
49947;BME280;35839;48.662;13.300;2023-04-27T09:05:18;97591.84;;;15.11;46.89
49947;BME280;35839;48.662;13.300;2023-04-27T09:08:03;97585.19;;;15.70;47.10
49947;BME280;35839;48.662;13.300;2023-04-27T09:10:49;97587.31;;;15.97;46.55
49947;BME280;35839;48.662;13.300;2023-04-27T09:13:15;97584.00;;;15.95;43.74
49947;BME280;35839;48.662;13.300;2023-04-27T09:15:43;97580.66;;;16.01;47.24
49947;BME280;35839;48.662;13.300;2023-04-27T09:18:14;97576.38;;;16.00;47.30
49947;BME280;35839;48.662;13.300;2023-04-27T09:20:48;97576.56;;;16.14;46.32
49947;BME280;35839;48.662;13.300;2023-04-27T09:23:27;97573.66;;;16.23;39.78
49947;BME280;35839;48.662;13.300;2023-04-27T09:25:53;97576.94;;;16.40;42.90
49947;BME280;35839;48.662;13.300;2023-04-27T09:28:20;97568.19;;;16.84;41.52
49947;BME280;35839;48.662;13.300;2023-04-27T09:30:53;97569.00;;;16.70;43.13
49947;BME280;35839;48.662;13.300;2023-04-27T09:33:32;97569.28;;;16.31;42.81
49947;BME280;35839;48.662;13.300;2023-04-27T09:36:00;97574.75;;;16.29;43.27
49947;BME280;35839;48.662;13.300;2023-04-27T09:38:26;97581.09;;;15.90;39.52
49947;BME280;35839;48.662;13.300;2023-04-27T09:40:52;97565.09;;;16.07;41.34
49947;BME280;35839;48.662;13.300;2023-04-27T09:43:18;97575.06;;;15.96;39.66
49947;BME280;35839;48.662;13.300;2023-04-27T09:45:43;97574.94;;;16.28;39.01
49947;BME280;35839;48.662;13.300;2023-04-27T09:48:11;97576.75;;;15.51;39.15
49947;BME280;35839;48.662;13.300;2023-04-27T09:50:42;97575.94;;;15.51;38.14
49947;BME280;35839;48.662;13.300;2023-04-27T09:53:12;97572.53;;;15.65;40.85
49947;BME280;35839;48.662;13.300;2023-04-27T09:58:38;97571.75;;;16.47;42.84
49947;BME280;35839;48.662;13.300;2023-04-27T10:07:11;97563.00;;;17.27;38.79
49947;BME280;35839;48.662;13.300;2023-04-27T10:09:47;97559.72;;;16.44;35.36
49947;BME280;35839;48.662;13.300;2023-04-27T10:14:57;97552.75;;;17.03;40.47
49947;BME280;35839;48.662;13.300;2023-04-27T10:17:28;97552.06;;;16.79;38.85
49947;BME280;35839;48.662;13.300;2023-04-27T10:20:05;97558.00;;;16.52;36.51
49947;BME280;35839;48.662;13.300;2023-04-27T10:22:39;97549.56;;;17.29;39.34
49947;BME280;35839;48.662;13.300;2023-04-27T10:25:18;97548.81;;;16.99;39.85
49947;BME280;35839;48.662;13.300;2023-04-27T10:27:53;97548.75;;;16.92;37.49
49947;BME280;35839;48.662;13.300;2023-04-27T10:30:21;97544.69;;;16.60;39.69
49947;BME280;35839;48.662;13.300;2023-04-27T10:35:16;97544.97;;;16.35;37.37
49947;BME280;35839;48.662;13.300;2023-04-27T10:37:42;97542.84;;;16.46;37.57
49947;BME280;35839;48.662;13.300;2023-04-27T10:40:09;97549.59;;;16.93;37.01
49947;BME280;35839;48.662;13.300;2023-04-27T10:42:35;97548.00;;;17.35;38.89
49947;BME280;35839;48.662;13.300;2023-04-27T10:45:01;97549.28;;;16.36;34.16
49947;BME280;35839;48.662;13.300;2023-04-27T10:47:37;97549.09;;;17.04;35.74
49947;BME280;35839;48.662;13.300;2023-04-27T10:50:04;97546.84;;;17.44;35.63
49947;BME280;35839;48.662;13.300;2023-04-27T10:52:30;97532.84;;;17.28;34.69
49947;BME280;35839;48.662;13.300;2023-04-27T10:54:55;97535.66;;;17.70;36.94
49947;BME280;35839;48.662;13.300;2023-04-27T10:57:21;97537.75;;;16.89;35.75
49947;BME280;35839;48.662;13.300;2023-04-27T10:59:51;97534.25;;;16.73;34.32
49947;BME280;35839;48.662;13.300;2023-04-27T11:02:24;97528.84;;;17.33;35.93
49947;BME280;35839;48.662;13.300;2023-04-27T11:04:50;97525.75;;;17.79;37.86
49947;BME280;35839;48.662;13.300;2023-04-27T11:07:26;97530.13;;;17.65;34.20
49947;BME280;35839;48.662;13.300;2023-04-27T11:09:52;97527.50;;;17.22;34.44
49947;BME280;35839;48.662;13.300;2023-04-27T11:12:18;97536.44;;;18.14;35.08
49947;BME280;35839;48.662;13.300;2023-04-27T11:14:43;97529.56;;;18.74;32.75
49947;BME280;35839;48.662;13.300;2023-04-27T11:17:08;97536.94;;;18.30;32.25
49947;BME280;35839;48.662;13.300;2023-04-27T11:19:47;97531.88;;;17.79;31.97
49947;BME280;35839;48.662;13.300;2023-04-27T11:22:13;97532.00;;;17.93;31.25
49947;BME280;35839;48.662;13.300;2023-04-27T11:24:48;97526.16;;;18.80;32.68
49947;BME280;35839;48.662;13.300;2023-04-27T11:27:15;97526.34;;;18.72;32.46
49947;BME280;35839;48.662;13.300;2023-04-27T11:29:40;97520.09;;;18.93;31.95
49947;BME280;35839;48.662;13.300;2023-04-27T11:32:06;97520.44;;;19.71;31.44
49947;BME280;35839;48.662;13.300;2023-04-27T11:34:32;97514.47;;;19.43;29.58
49947;BME280;35839;48.662;13.300;2023-04-27T11:37:04;97528.31;;;19.05;29.48
49947;BME280;35839;48.662;13.300;2023-04-27T11:39:35;97517.88;;;20.95;29.32
49947;BME280;35839;48.662;13.300;2023-04-27T11:45:00;97519.00;;;19.75;30.66
49947;BME280;35839;48.662;13.300;2023-04-27T11:47:29;97531.56;;;19.00;28.51
49947;BME280;35839;48.662;13.300;2023-04-27T11:49:57;97524.69;;;19.66;28.84
49947;BME280;35839;48.662;13.300;2023-04-27T11:52:30;97530.00;;;20.12;29.54
49947;BME280;35839;48.662;13.300;2023-04-27T11:54:56;97527.97;;;19.68;27.42
49947;BME280;35839;48.662;13.300;2023-04-27T11:57:26;97529.81;;;20.79;28.27
49947;BME280;35839;48.662;13.300;2023-04-27T11:59:53;97531.13;;;20.50;26.02
49947;BME280;35839;48.662;13.300;2023-04-27T12:02:19;97531.81;;;20.90;27.67
49947;BME280;35839;48.662;13.300;2023-04-27T12:04:47;97529.56;;;20.29;25.56
49947;BME280;35839;48.662;13.300;2023-04-27T12:07:12;97532.47;;;19.94;29.09
49947;BME280;35839;48.662;13.300;2023-04-27T12:09:38;97534.53;;;20.05;25.90
49947;BME280;35839;48.662;13.300;2023-04-27T12:12:03;97530.19;;;19.37;26.38
49947;BME280;35839;48.662;13.300;2023-04-27T12:14:29;97526.13;;;19.62;27.50
49947;BME280;35839;48.662;13.300;2023-04-27T12:16:54;97522.66;;;20.01;27.78
49947;BME280;35839;48.662;13.300;2023-04-27T12:19:19;97537.75;;;19.67;28.74
49947;BME280;35839;48.662;13.300;2023-04-27T12:21:45;97525.00;;;20.49;27.36
49947;BME280;35839;48.662;13.300;2023-04-27T12:24:10;97530.72;;;21.04;26.45
49947;BME280;35839;48.662;13.300;2023-04-27T12:26:36;97522.19;;;21.27;27.68
49947;BME280;35839;48.662;13.300;2023-04-27T12:29:01;97528.84;;;21.75;27.60
49947;BME280;35839;48.662;13.300;2023-04-27T12:31:27;97525.28;;;22.32;25.11
49947;BME280;35839;48.662;13.300;2023-04-27T12:33:53;97528.34;;;21.60;25.60
49947;BME280;35839;48.662;13.300;2023-04-27T12:36:18;97527.38;;;19.72;26.37
49947;BME280;35839;48.662;13.300;2023-04-27T12:38:43;97531.22;;;19.50;30.03
49947;BME280;35839;48.662;13.300;2023-04-27T12:41:09;97527.41;;;20.71;28.97
49947;BME280;35839;48.662;13.300;2023-04-27T12:43:35;97532.91;;;19.77;28.53
49947;BME280;35839;48.662;13.300;2023-04-27T12:46:02;97520.44;;;20.70;26.94
49947;BME280;35839;48.662;13.300;2023-04-27T12:48:27;97519.31;;;21.86;27.06
49947;BME280;35839;48.662;13.300;2023-04-27T12:50:52;97525.13;;;22.26;25.51
49947;BME280;35839;48.662;13.300;2023-04-27T12:53:18;97527.41;;;21.48;25.30
49947;BME280;35839;48.662;13.300;2023-04-27T12:55:43;97522.47;;;22.26;27.12
49947;BME280;35839;48.662;13.300;2023-04-27T12:58:08;97519.44;;;22.90;27.20
49947;BME280;35839;48.662;13.300;2023-04-27T13:00:34;97520.53;;;22.70;26.25
49947;BME280;35839;48.662;13.300;2023-04-27T13:02:59;97523.47;;;21.82;27.63
49947;BME280;35839;48.662;13.300;2023-04-27T13:05:24;97533.22;;;22.13;26.43
49947;BME280;35839;48.662;13.300;2023-04-27T13:07:51;97530.94;;;21.03;27.63
49947;BME280;35839;48.662;13.300;2023-04-27T13:10:16;97526.44;;;20.58;27.60
49947;BME280;35839;48.662;13.300;2023-04-27T13:12:41;97523.56;;;21.43;27.06
49947;BME280;35839;48.662;13.300;2023-04-27T13:15:07;97526.19;;;21.75;25.68
49947;BME280;35839;48.662;13.300;2023-04-27T13:17:33;97528.22;;;22.60;27.84
49947;BME280;35839;48.662;13.300;2023-04-27T13:19:58;97517.59;;;21.73;25.32
49947;BME280;35839;48.662;13.300;2023-04-27T13:22:23;97525.13;;;22.26;25.66
49947;BME280;35839;48.662;13.300;2023-04-27T13:24:49;97523.75;;;22.72;27.00
49947;BME280;35839;48.662;13.300;2023-04-27T13:27:14;97523.97;;;21.91;26.82
49947;BME280;35839;48.662;13.300;2023-04-27T13:29:41;97520.53;;;22.70;27.43
49947;BME280;35839;48.662;13.300;2023-04-27T13:32:06;97515.84;;;23.14;25.90
49947;BME280;35839;48.662;13.300;2023-04-27T13:34:31;97524.28;;;22.63;26.42
49947;BME280;35839;48.662;13.300;2023-04-27T13:36:57;97513.31;;;23.62;26.18
49947;BME280;35839;48.662;13.300;2023-04-27T13:39:22;97508.75;;;23.50;25.83
49947;BME280;35839;48.662;13.300;2023-04-27T13:41:49;97520.28;;;22.35;24.55
49947;BME280;35839;48.662;13.300;2023-04-27T13:44:14;97514.75;;;21.04;26.84
49947;BME280;35839;48.662;13.300;2023-04-27T13:46:40;97516.88;;;21.84;26.69
49947;BME280;35839;48.662;13.300;2023-04-27T13:49:05;97520.38;;;20.83;26.83
49947;BME280;35839;48.662;13.300;2023-04-27T13:51:30;97512.31;;;23.02;26.63
49947;BME280;35839;48.662;13.300;2023-04-27T13:53:56;97514.00;;;22.29;27.29
49947;BME280;35839;48.662;13.300;2023-04-27T13:56:22;97516.69;;;23.15;27.70
49947;BME280;35839;48.662;13.300;2023-04-27T13:58:47;97505.50;;;23.72;25.66
49947;BME280;35839;48.662;13.300;2023-04-27T14:01:12;97498.56;;;24.18;26.62
49947;BME280;35839;48.662;13.300;2023-04-27T14:03:38;97499.25;;;24.49;25.13
49947;BME280;35839;48.662;13.300;2023-04-27T14:06:04;97502.75;;;25.18;25.97
49947;BME280;35839;48.662;13.300;2023-04-27T14:08:29;97500.56;;;23.75;25.65
49947;BME280;35839;48.662;13.300;2023-04-27T14:10:55;97504.75;;;23.29;26.44
49947;BME280;35839;48.662;13.300;2023-04-27T14:13:21;97509.94;;;24.49;27.81
49947;BME280;35839;48.662;13.300;2023-04-27T14:15:46;97507.50;;;22.19;26.53
49947;BME280;35839;48.662;13.300;2023-04-27T14:18:12;97504.78;;;24.59;23.82
49947;BME280;35839;48.662;13.300;2023-04-27T14:20:37;97504.28;;;23.98;25.37
49947;BME280;35839;48.662;13.300;2023-04-27T14:23:06;97511.59;;;22.03;26.14
49947;BME280;35839;48.662;13.300;2023-04-27T14:25:31;97508.91;;;22.95;24.89
49947;BME280;35839;48.662;13.300;2023-04-27T14:28:03;97504.81;;;22.25;25.72
49947;BME280;35839;48.662;13.300;2023-04-27T14:30:30;97498.59;;;24.06;25.33
49947;BME280;35839;48.662;13.300;2023-04-27T14:32:55;97503.94;;;24.06;25.02
49947;BME280;35839;48.662;13.300;2023-04-27T14:35:21;97504.06;;;25.04;24.77
49947;BME280;35839;48.662;13.300;2023-04-27T14:37:48;97505.19;;;24.39;23.69
49947;BME280;35839;48.662;13.300;2023-04-27T14:40:14;97502.41;;;24.34;25.49
49947;BME280;35839;48.662;13.300;2023-04-27T14:42:39;97506.09;;;25.26;23.14
49947;BME280;35839;48.662;13.300;2023-04-27T14:45:06;97510.56;;;25.37;25.23
49947;BME280;35839;48.662;13.300;2023-04-27T14:47:31;97510.22;;;23.88;24.68
49947;BME280;35839;48.662;13.300;2023-04-27T14:49:56;97508.28;;;23.53;24.64
49947;BME280;35839;48.662;13.300;2023-04-27T14:52:22;97507.59;;;24.40;25.07
49947;BME280;35839;48.662;13.300;2023-04-27T14:54:47;97508.69;;;24.04;24.58
49947;BME280;35839;48.662;13.300;2023-04-27T14:57:12;97502.41;;;23.33;24.63
49947;BME280;35839;48.662;13.300;2023-04-27T14:59:37;97500.06;;;22.64;25.65
49947;BME280;35839;48.662;13.300;2023-04-27T15:02:03;97505.66;;;23.77;24.33
49947;BME280;35839;48.662;13.300;2023-04-27T15:04:29;97499.59;;;24.52;23.89
49947;BME280;35839;48.662;13.300;2023-04-27T15:06:54;97506.00;;;22.48;24.56
49947;BME280;35839;48.662;13.300;2023-04-27T15:09:20;97493.94;;;25.06;24.41
49947;BME280;35839;48.662;13.300;2023-04-27T15:11:45;97500.41;;;24.53;24.24
49947;BME280;35839;48.662;13.300;2023-04-27T15:14:10;97489.41;;;23.79;26.16
49947;BME280;35839;48.662;13.300;2023-04-27T15:16:36;97498.88;;;23.51;26.69
49947;BME280;35839;48.662;13.300;2023-04-27T15:19:01;97492.13;;;24.54;25.10
49947;BME280;35839;48.662;13.300;2023-04-27T15:21:29;97493.53;;;25.60;24.03
49947;BME280;35839;48.662;13.300;2023-04-27T15:23:54;97496.44;;;25.58;23.40
49947;BME280;35839;48.662;13.300;2023-04-27T15:26:19;97506.28;;;25.70;22.76
49947;BME280;35839;48.662;13.300;2023-04-27T15:28:45;97493.91;;;24.25;22.85
49947;BME280;35839;48.662;13.300;2023-04-27T15:31:10;97494.81;;;26.08;22.00
49947;BME280;35839;48.662;13.300;2023-04-27T15:33:35;97492.50;;;26.56;22.38
49947;BME280;35839;48.662;13.300;2023-04-27T15:36:01;97493.09;;;24.36;23.22
49947;BME280;35839;48.662;13.300;2023-04-27T15:38:27;97488.34;;;26.48;23.11
49947;BME280;35839;48.662;13.300;2023-04-27T15:40:52;97491.44;;;27.06;20.30
49947;BME280;35839;48.662;13.300;2023-04-27T15:43:17;97484.59;;;27.47;23.27
49947;BME280;35839;48.662;13.300;2023-04-27T15:45:43;97489.03;;;26.38;20.83
49947;BME280;35839;48.662;13.300;2023-04-27T15:48:10;97491.72;;;25.32;21.19
49947;BME280;35839;48.662;13.300;2023-04-27T15:50:36;97492.47;;;24.58;21.09
49947;BME280;35839;48.662;13.300;2023-04-27T15:53:01;97496.34;;;22.65;22.20
49947;BME280;35839;48.662;13.300;2023-04-27T15:55:27;97490.09;;;24.09;23.24
49947;BME280;35839;48.662;13.300;2023-04-27T15:57:52;97490.03;;;24.56;22.17
49947;BME280;35839;48.662;13.300;2023-04-27T16:00:18;97491.66;;;24.57;22.39
49947;BME280;35839;48.662;13.300;2023-04-27T16:02:46;97487.94;;;25.95;22.80
49947;BME280;35839;48.662;13.300;2023-04-27T16:05:11;97486.91;;;26.40;20.80
49947;BME280;35839;48.662;13.300;2023-04-27T16:07:37;97486.91;;;26.40;21.41
49947;BME280;35839;48.662;13.300;2023-04-27T16:10:07;97495.44;;;26.76;20.61
49947;BME280;35839;48.662;13.300;2023-04-27T16:12:32;97483.38;;;27.06;20.75
49947;BME280;35839;48.662;13.300;2023-04-27T16:14:57;97481.78;;;27.05;22.93
49947;BME280;35839;48.662;13.300;2023-04-27T16:17:25;97480.91;;;26.33;21.66
49947;BME280;35839;48.662;13.300;2023-04-27T16:19:50;97475.41;;;25.50;21.46
49947;BME280;35839;48.662;13.300;2023-04-27T16:22:16;97475.34;;;27.33;20.24
49947;BME280;35839;48.662;13.300;2023-04-27T16:24:41;97473.84;;;26.93;20.66
49947;BME280;35839;48.662;13.300;2023-04-27T16:27:07;97481.03;;;26.21;20.69
49947;BME280;35839;48.662;13.300;2023-04-27T16:29:33;97481.88;;;24.63;22.83
49947;BME280;35839;48.662;13.300;2023-04-27T16:31:58;97472.75;;;27.16;21.78
49947;BME280;35839;48.662;13.300;2023-04-27T16:34:24;97479.66;;;26.58;20.78
49947;BME280;35839;48.662;13.300;2023-04-27T16:36:49;97470.09;;;26.94;20.40
49947;BME280;35839;48.662;13.300;2023-04-27T16:39:15;97471.13;;;27.80;21.84
49947;BME280;35839;48.662;13.300;2023-04-27T16:41:43;97472.13;;;27.09;22.23
49947;BME280;35839;48.662;13.300;2023-04-27T16:44:08;97476.41;;;26.83;19.95
49947;BME280;35839;48.662;13.300;2023-04-27T16:46:33;97468.50;;;27.85;19.55
49947;BME280;35839;48.662;13.300;2023-04-27T16:48:58;97462.81;;;28.29;20.42
49947;BME280;35839;48.662;13.300;2023-04-27T16:51:24;97471.97;;;26.94;20.62
49947;BME280;35839;48.662;13.300;2023-04-27T16:53:49;97469.19;;;27.10;20.28
49947;BME280;35839;48.662;13.300;2023-04-27T16:56:24;97469.78;;;25.52;20.90
49947;BME280;35839;48.662;13.300;2023-04-27T16:58:50;97468.25;;;24.93;22.59
49947;BME280;35839;48.662;13.300;2023-04-27T17:01:15;97466.34;;;23.00;23.91
49947;BME280;35839;48.662;13.300;2023-04-27T17:03:40;97472.59;;;23.36;24.89
49947;BME280;35839;48.662;13.300;2023-04-27T17:06:05;97468.88;;;21.66;25.28
49947;BME280;35839;48.662;13.300;2023-04-27T17:08:31;97476.16;;;21.96;25.59
49947;BME280;35839;48.662;13.300;2023-04-27T17:10:56;97472.94;;;21.43;26.47
49947;BME280;35839;48.662;13.300;2023-04-27T17:13:21;97472.84;;;20.93;26.97
49947;BME280;35839;48.662;13.300;2023-04-27T17:15:48;97475.56;;;20.28;27.74
49947;BME280;35839;48.662;13.300;2023-04-27T17:18:13;97473.38;;;20.12;28.36
49947;BME280;35839;48.662;13.300;2023-04-27T17:20:39;97469.03;;;20.24;27.52
49947;BME280;35839;48.662;13.300;2023-04-27T17:23:04;97463.81;;;19.64;28.77
49947;BME280;35839;48.662;13.300;2023-04-27T17:25:31;97470.34;;;19.28;29.79
49947;BME280;35839;48.662;13.300;2023-04-27T17:27:56;97467.69;;;19.55;29.20
49947;BME280;35839;48.662;13.300;2023-04-27T17:30:21;97472.75;;;20.10;29.97
49947;BME280;35839;48.662;13.300;2023-04-27T17:32:47;97461.88;;;20.25;34.06
49947;BME280;35839;48.662;13.300;2023-04-27T17:35:12;97467.81;;;20.13;34.83
49947;BME280;35839;48.662;13.300;2023-04-27T17:37:37;97464.19;;;19.94;34.81
49947;BME280;35839;48.662;13.300;2023-04-27T17:40:04;97465.66;;;19.30;34.73
49947;BME280;35839;48.662;13.300;2023-04-27T17:42:33;97468.25;;;19.04;36.59
49947;BME280;35839;48.662;13.300;2023-04-27T17:44:58;97463.63;;;18.58;35.93
49947;BME280;35839;48.662;13.300;2023-04-27T17:47:23;97469.13;;;18.08;35.61
49947;BME280;35839;48.662;13.300;2023-04-27T17:49:49;97470.59;;;17.82;36.20
49947;BME280;35839;48.662;13.300;2023-04-27T17:52:15;97473.91;;;17.63;36.60
49947;BME280;35839;48.662;13.300;2023-04-27T17:54:41;97473.50;;;17.38;36.39
49947;BME280;35839;48.662;13.300;2023-04-27T17:57:07;97464.41;;;16.82;37.08
49947;BME280;35839;48.662;13.300;2023-04-27T17:59:33;97465.00;;;16.63;37.57
49947;BME280;35839;48.662;13.300;2023-04-27T18:01:58;97459.59;;;16.71;37.32
49947;BME280;35839;48.662;13.300;2023-04-27T18:04:23;97458.31;;;16.82;37.43
49947;BME280;35839;48.662;13.300;2023-04-27T18:06:49;97463.81;;;16.65;37.71